Time;durP1;ratioP1;P1;durP2;ratioP2;P2;SDS_P1;SDS_P2;PMS_P1;PMS_P2;Temp;Humidity;BMP_temperature;BMP_pressure;BME280_temperature;BME280_humidity;BME280_pressure;Samples;Min_cycle;Max_cycle;Signal;HPM_P1;HPM_P2
2022/07/28 00:01:04;;;;;;;3.17;1.40;;;;;;;18.22;46.17;101925.78;4966708;28;122797;-74
2022/07/28 00:03:31;;;;;;;4.30;1.15;;;;;;;18.19;46.33;101925.94;4984286;28;120465;-74
2022/07/28 00:05:58;;;;;;;5.45;1.58;;;;;;;18.18;46.15;101929.59;4967169;28;119300;-74
2022/07/28 00:08:25;;;;;;;2.80;1.20;;;;;;;18.17;46.26;101927.84;4984079;28;123758;-74
2022/07/28 00:10:52;;;;;;;3.13;1.30;;;;;;;18.17;46.25;101930.53;4966869;28;123164;-75
2022/07/28 00:13:19;;;;;;;2.67;1.20;;;;;;;18.15;46.40;101919.03;4982938;28;118344;-75
2022/07/28 00:15:46;;;;;;;2.75;1.85;;;;;;;18.14;46.41;101919.97;4950064;28;118133;-75
2022/07/28 00:18:13;;;;;;;4.13;1.30;;;;;;;18.13;46.48;101920.97;4981642;28;124019;-74
2022/07/28 00:20:40;;;;;;;2.85;1.20;;;;;;;18.09;46.62;101926.50;4983199;28;123749;-74
2022/07/28 00:23:08;;;;;;;2.97;1.48;;;;;;;18.07;46.66;101923.03;4980695;28;119516;-74
2022/07/28 00:25:36;;;;;;;3.30;1.40;;;;;;;18.08;46.68;101930.16;4970008;28;97997;-75
2022/07/28 00:28:03;;;;;;;4.03;1.40;;;;;;;18.08;46.65;101935.50;4986839;28;122916;-75
2022/07/28 00:30:30;;;;;;;2.75;1.70;;;;;;;18.11;46.69;101928.22;4970616;28;122930;-75
2022/07/28 00:32:57;;;;;;;3.20;1.30;;;;;;;18.08;46.22;101929.25;4987735;28;119114;-74
2022/07/28 00:35:24;;;;;;;3.33;1.50;;;;;;;18.06;46.58;101921.34;4967107;28;119164;-74
2022/07/28 00:37:58;;;;;;;5.55;1.50;;;;;;;18.04;46.85;101917.84;4986959;28;125173;-74
2022/07/28 00:43:14;;;;;;;3.17;1.30;;;;;;;17.92;46.87;101902.50;4985911;28;119087;-75
2022/07/28 00:45:41;;;;;;;2.67;1.27;;;;;;;17.89;46.95;101908.94;4970178;28;118256;-74
2022/07/28 00:48:08;;;;;;;4.47;1.38;;;;;;;17.88;46.94;101895.59;4969679;28;124013;-74
2022/07/28 00:50:39;;;;;;;3.63;1.05;;;;;;;17.84;47.49;101896.72;4987669;28;123767;-75
2022/07/28 00:53:07;;;;;;;3.45;1.42;;;;;;;17.80;47.35;101901.38;4987332;28;120747;-74
2022/07/28 00:55:37;;;;;;;6.53;1.55;;;;;;;17.75;47.19;101905.28;4984738;28;119888;-75
2022/07/28 00:58:28;;;;;;;2.58;1.20;;;;;;;17.70;47.37;101903.72;4986561;28;124127;-74
2022/07/28 01:00:55;;;;;;;3.60;1.60;;;;;;;17.71;47.08;101910.81;4985524;28;123904;-74
2022/07/28 01:03:24;;;;;;;3.40;1.40;;;;;;;17.70;47.28;101908.22;4968923;28;119120;-74
2022/07/28 01:05:57;;;;;;;3.78;1.42;;;;;;;17.69;47.32;101902.00;4969732;28;119078;-74
2022/07/28 01:08:35;;;;;;;3.80;1.60;;;;;;;17.68;47.36;101899.41;4984347;28;124141;-74
2022/07/28 01:11:22;;;;;;;3.85;1.35;;;;;;;17.65;47.15;101895.09;4987127;28;123893;-75
2022/07/28 01:13:59;;;;;;;3.15;2.00;;;;;;;17.62;47.22;101903.31;4984417;28;119306;-75
2022/07/28 01:16:27;;;;;;;2.70;1.27;;;;;;;17.57;47.18;101902.69;4967696;28;118977;-75
2022/07/28 01:19:07;;;;;;;3.05;1.40;;;;;;;17.54;47.27;101900.22;4985318;28;123249;-75
2022/07/28 01:21:36;;;;;;;4.25;1.50;;;;;;;17.54;47.20;101897.53;4984911;28;123656;-75
2022/07/28 01:24:12;;;;;;;3.95;1.20;;;;;;;17.51;47.24;101895.03;4987333;28;119601;-75
2022/07/28 01:26:52;;;;;;;4.40;1.63;;;;;;;17.49;47.20;101888.91;4987512;28;119201;-75
2022/07/28 01:29:51;;;;;;;2.40;1.75;;;;;;;17.44;47.10;101885.63;4983967;28;121798;-75
2022/07/28 01:32:20;;;;;;;4.00;1.40;;;;;;;17.38;47.25;101885.97;4993418;28;123115;-75
2022/07/28 01:34:57;;;;;;;4.25;1.35;;;;;;;17.31;47.22;101883.66;5011980;28;121430;-75
2022/07/28 01:37:28;;;;;;;4.85;1.50;;;;;;;17.24;47.34;101884.94;4991888;28;119128;-74
2022/07/28 01:39:59;;;;;;;3.05;1.60;;;;;;;17.20;47.34;101891.44;4986075;28;124235;-75
2022/07/28 01:42:32;;;;;;;4.32;1.30;;;;;;;17.19;47.53;101891.50;4986252;28;124697;-75
2022/07/28 01:45:01;;;;;;;4.50;1.90;;;;;;;17.17;47.54;101883.56;4966297;28;119781;-75
2022/07/28 01:47:30;;;;;;;3.28;1.30;;;;;;;17.15;47.37;101874.75;4979508;28;119835;-75
2022/07/28 01:50:01;;;;;;;2.80;1.50;;;;;;;17.13;47.42;101873.97;4966114;28;123841;-75
2022/07/28 01:52:30;;;;;;;3.75;1.45;;;;;;;17.10;47.38;101876.81;4947277;28;122697;-75
2022/07/28 01:55:00;;;;;;;1.80;1.20;;;;;;;17.06;47.35;101872.59;4969021;28;119532;-72
2022/07/28 01:57:32;;;;;;;5.20;1.52;;;;;;;17.02;47.45;101879.91;4952229;28;118795;-75
2022/07/28 02:00:00;;;;;;;4.60;1.60;;;;;;;17.01;47.47;101877.31;4982097;28;124590;-75
2022/07/28 02:02:41;;;;;;;5.68;1.40;;;;;;;16.99;47.59;101873.88;4985952;28;125298;-75
2022/07/28 02:05:12;;;;;;;2.80;1.55;;;;;;;16.95;47.48;101866.97;4985804;28;118721;-73
2022/07/28 02:07:43;;;;;;;3.88;1.40;;;;;;;16.90;47.54;101876.13;4951881;28;118488;-74
2022/07/28 02:10:13;;;;;;;1.88;1.30;;;;;;;16.86;47.78;101869.22;4980403;28;123912;-74
2022/07/28 02:12:42;;;;;;;3.17;1.40;;;;;;;16.84;47.64;101864.88;4966639;28;125357;-75
2022/07/28 02:15:12;;;;;;;3.63;1.50;;;;;;;16.80;47.65;101861.50;4982734;28;119222;-74
2022/07/28 02:17:42;;;;;;;5.47;1.38;;;;;;;16.75;47.66;101866.22;4986007;28;117933;-75
2022/07/28 02:20:13;;;;;;;2.83;1.40;;;;;;;16.71;47.67;101875.38;4984175;28;124415;-74
2022/07/28 02:22:42;;;;;;;3.83;1.50;;;;;;;16.68;48.17;101870.19;4982696;28;124032;-75
2022/07/28 02:25:09;;;;;;;3.70;1.23;;;;;;;16.64;47.86;101868.63;4983792;28;120123;-75
2022/07/28 02:27:51;;;;;;;3.85;1.70;;;;;;;16.61;47.86;101864.28;4986004;28;118815;-75
2022/07/28 02:30:25;;;;;;;3.40;1.40;;;;;;;16.55;47.88;101857.47;4984007;28;124281;-75
2022/07/28 02:33:02;;;;;;;3.23;1.33;;;;;;;16.48;47.91;101852.53;4985639;28;123895;-74
2022/07/28 02:35:53;;;;;;;5.65;1.50;;;;;;;16.41;47.98;101851.16;4985842;28;120361;-75
2022/07/28 02:38:26;;;;;;;3.28;1.30;;;;;;;16.36;48.21;101854.06;4984155;28;119678;-74
2022/07/28 02:40:59;;;;;;;1.83;1.30;;;;;;;16.29;48.39;101852.66;4982469;28;124150;-74
2022/07/28 02:43:28;;;;;;;4.30;1.23;;;;;;;16.25;48.23;101851.09;4954164;28;123073;-74
2022/07/28 02:46:20;;;;;;;4.40;1.17;;;;;;;16.24;48.50;101854.72;4984806;28;119347;-73
2022/07/28 02:48:53;;;;;;;7.32;1.70;;;;;;;16.22;48.64;101851.25;4985353;28;120052;-73
2022/07/28 02:51:23;;;;;;;3.08;1.17;;;;;;;16.22;48.89;101856.59;4985460;28;124656;-74
2022/07/28 02:53:52;;;;;;;2.10;1.05;;;;;;;16.22;48.93;101851.25;4968319;28;124759;-73
2022/07/28 02:56:21;;;;;;;4.57;1.30;;;;;;;16.23;48.84;101852.97;4965666;28;119881;-74
2022/07/28 02:58:49;;;;;;;4.20;1.58;;;;;;;16.24;49.02;101847.56;4984097;28;118926;-74
2022/07/28 03:01:18;;;;;;;4.03;1.52;;;;;;;16.25;48.98;101840.41;4984597;28;123951;-74
2022/07/28 03:03:47;;;;;;;2.78;1.10;;;;;;;16.25;49.24;101846.59;4983559;28;123031;-74
2022/07/28 03:06:15;;;;;;;4.15;1.40;;;;;;;16.25;49.18;101856.44;4968266;28;118876;-73
2022/07/28 03:08:43;;;;;;;5.20;1.40;;;;;;;16.25;49.04;101851.09;4985816;28;120008;-73
2022/07/28 03:11:12;;;;;;;3.65;1.55;;;;;;;16.26;49.18;101852.84;4965794;28;124325;-73
2022/07/28 03:13:39;;;;;;;3.50;1.42;;;;;;;16.26;49.18;101853.69;4984330;28;123593;-73
2022/07/28 03:16:07;;;;;;;3.35;1.25;;;;;;;16.26;49.13;101853.69;4967563;28;119145;-74
2022/07/28 03:18:34;;;;;;;4.50;1.85;;;;;;;16.27;49.02;101849.19;4986301;28;118823;-73
2022/07/28 03:21:01;;;;;;;3.80;1.65;;;;;;;16.27;49.23;101857.22;4966653;28;123764;-74
2022/07/28 03:23:35;;;;;;;3.35;1.70;;;;;;;16.28;49.50;101857.13;4966794;28;122969;-74
2022/07/28 03:26:11;;;;;;;2.40;1.60;;;;;;;16.27;49.44;101854.53;4984344;28;120330;-74
2022/07/28 03:28:39;;;;;;;6.82;2.03;;;;;;;16.27;49.30;101867.91;4967386;28;119722;-74
2022/07/28 03:31:08;;;;;;;3.83;2.13;;;;;;;16.26;49.42;101863.53;4982964;28;125256;-74
2022/07/28 03:33:37;;;;;;;3.15;2.17;;;;;;;16.25;49.47;101869.81;4986391;28;124324;-74
2022/07/28 03:36:10;;;;;;;3.13;2.10;;;;;;;16.23;49.48;101863.69;4984424;28;119088;-74
2022/07/28 03:38:42;;;;;;;3.78;1.90;;;;;;;16.21;49.56;101871.75;4983313;28;119596;-74
2022/07/28 03:41:10;;;;;;;4.47;2.28;;;;;;;16.19;49.64;101872.81;4966017;28;122124;-74
2022/07/28 03:43:38;;;;;;;3.70;2.10;;;;;;;16.19;49.56;101867.47;4966158;28;124282;-74
2022/07/28 03:46:07;;;;;;;4.95;2.25;;;;;;;16.18;49.64;101871.06;4978895;28;119477;-74
2022/07/28 03:48:39;;;;;;;3.50;1.90;;;;;;;16.17;49.65;101869.34;4950033;28;117404;-74
2022/07/28 03:51:06;;;;;;;4.13;1.90;;;;;;;16.18;49.81;101871.06;4965744;28;123281;-73
2022/07/28 03:53:33;;;;;;;3.38;2.10;;;;;;;16.18;49.78;101876.41;4984073;28;123950;-74
2022/07/28 03:56:02;;;;;;;4.53;1.90;;;;;;;16.18;49.66;101873.72;4984123;28;119199;-74
2022/07/28 03:58:29;;;;;;;7.18;2.00;;;;;;;16.15;49.81;101878.28;4982075;28;118694;-74
2022/07/28 04:00:57;;;;;;;3.72;2.03;;;;;;;16.12;50.03;101878.47;4985567;28;124071;-74
2022/07/28 04:03:25;;;;;;;4.70;2.10;;;;;;;16.12;49.92;101873.13;4970011;28;123094;-74
2022/07/28 04:06:14;;;;;;;5.25;2.10;;;;;;;16.09;49.82;101872.44;4972899;28;119074;-74
2022/07/28 04:08:42;;;;;;;4.20;1.88;;;;;;;16.06;49.78;101868.09;4953040;28;117796;-74
2022/07/28 04:11:10;;;;;;;3.42;2.30;;;;;;;16.04;49.96;101880.66;4988271;28;125604;-74
2022/07/28 04:13:37;;;;;;;4.25;2.10;;;;;;;16.01;50.12;101875.50;4986698;28;123490;-74
2022/07/28 04:16:05;;;;;;;3.95;2.10;;;;;;;15.99;50.13;101872.00;4987258;28;119931;-73
2022/07/28 04:18:33;;;;;;;4.15;2.22;;;;;;;15.95;50.14;101867.78;4987813;28;120172;-74
2022/07/28 04:21:00;;;;;;;4.63;2.45;;;;;;;15.94;50.15;101860.72;4984086;28;124562;-74
2022/07/28 04:23:27;;;;;;;3.78;2.00;;;;;;;15.94;50.29;101858.03;4966869;28;123978;-74
2022/07/28 04:25:55;;;;;;;7.97;2.15;;;;;;;15.93;50.26;101856.28;4987124;28;118446;-73
2022/07/28 04:28:23;;;;;;;7.32;2.40;;;;;;;15.93;50.37;101861.66;4985008;28;119012;-74
2022/07/28 04:30:50;;;;;;;3.25;2.13;;;;;;;15.93;50.50;101856.28;4970027;28;124768;-74
2022/07/28 04:33:18;;;;;;;4.55;1.70;;;;;;;15.92;50.43;101855.44;4987214;28;123794;-73
2022/07/28 04:35:45;;;;;;;4.10;1.70;;;;;;;15.94;50.64;101863.38;4987210;28;119264;-73
2022/07/28 04:38:13;;;;;;;6.25;1.40;;;;;;;15.97;50.49;101857.88;4970654;28;119014;-74
2022/07/28 04:40:41;;;;;;;5.53;1.55;;;;;;;16.01;50.61;101862.13;4987423;28;124792;-74
2022/07/28 04:43:09;;;;;;;7.22;1.70;;;;;;;16.02;50.77;101850.47;4966743;28;123324;-74
2022/07/28 04:45:36;;;;;;;4.32;1.45;;;;;;;16.05;50.77;101861.03;4986582;28;120172;-74
2022/07/28 04:48:04;;;;;;;5.25;1.67;;;;;;;16.07;50.77;101848.44;4986548;28;119987;-74
2022/07/28 04:50:31;;;;;;;3.03;1.45;;;;;;;16.11;50.99;101852.69;4984607;28;123999;-74
2022/07/28 04:52:58;;;;;;;3.88;1.67;;;;;;;16.14;50.94;101860.56;4988024;28;123511;-74
2022/07/28 04:55:26;;;;;;;5.18;1.48;;;;;;;16.22;51.10;101861.94;4987413;28;120371;-74
2022/07/28 04:57:53;;;;;;;3.38;1.58;;;;;;;16.28;51.35;101853.63;4970021;28;118915;-74
2022/07/28 05:00:21;;;;;;;3.88;1.60;;;;;;;16.34;51.17;101858.63;4953528;28;123606;-74
2022/07/28 05:02:49;;;;;;;4.72;1.67;;;;;;;16.38;50.92;101852.16;4987141;28;124754;-74
2022/07/28 05:05:16;;;;;;;3.75;1.70;;;;;;;16.42;51.27;101859.06;4983604;28;119222;-74
2022/07/28 05:07:43;;;;;;;6.18;2.08;;;;;;;16.44;51.21;101851.81;4987591;28;120641;-74
2022/07/28 05:10:11;;;;;;;4.90;1.70;;;;;;;16.47;51.46;101851.69;4969711;28;123238;-75
2022/07/28 05:12:38;;;;;;;2.63;1.40;;;;;;;16.51;51.37;101847.88;4968148;28;123566;-75
2022/07/28 05:15:07;;;;;;;4.70;1.85;;;;;;;16.52;51.39;101844.28;4985551;28;119401;-73
2022/07/28 05:17:35;;;;;;;5.75;2.10;;;;;;;16.56;51.33;101850.31;4968620;28;118712;-75
2022/07/28 05:20:04;;;;;;;5.22;2.05;;;;;;;16.58;51.21;101847.56;4985721;28;124081;-75
2022/07/28 05:22:46;;;;;;;6.97;2.22;;;;;;;16.60;51.20;101845.69;4984942;28;124362;-74
2022/07/28 05:25:18;;;;;;;4.05;1.83;;;;;;;16.61;51.34;101850.91;4969531;28;118761;-75
2022/07/28 05:27:46;;;;;;;3.33;1.70;;;;;;;16.64;51.14;101852.59;4985195;28;117074;-75
2022/07/28 05:30:15;;;;;;;7.00;2.00;;;;;;;16.67;51.43;101858.63;4981072;28;123673;-74
2022/07/28 05:32:44;;;;;;;3.45;1.70;;;;;;;16.71;51.07;101853.97;4984535;28;124313;-75
2022/07/28 05:35:12;;;;;;;4.78;1.40;;;;;;;16.75;50.93;101860.88;4987187;28;117344;-74
2022/07/28 05:37:39;;;;;;;2.65;1.58;;;;;;;16.79;51.00;101857.09;4951225;28;118111;-74
2022/07/28 05:40:14;;;;;;;4.68;1.25;;;;;;;16.82;50.76;101856.03;4985184;28;123120;-74
2022/07/28 05:42:42;;;;;;;3.70;1.40;;;;;;;16.87;50.74;101854.03;4985536;28;123855;-74
2022/07/28 05:45:10;;;;;;;4.22;1.30;;;;;;;16.90;50.70;101870.78;4967248;28;118512;-74
2022/07/28 05:47:47;;;;;;;3.42;1.70;;;;;;;16.94;50.77;101860.75;4965032;28;117966;-75
2022/07/28 05:50:15;;;;;;;2.65;1.40;;;;;;;17.00;50.57;101865.75;4984540;28;124385;-75
2022/07/28 05:52:43;;;;;;;4.72;1.45;;;;;;;17.05;50.65;101865.53;4965792;28;124185;-75
2022/07/28 05:55:11;;;;;;;3.47;1.40;;;;;;;17.08;50.68;101865.34;4967352;28;120681;-74
2022/07/28 05:57:40;;;;;;;5.10;1.60;;;;;;;17.11;50.59;101862.50;4966153;28;119641;-75
2022/07/28 06:00:11;;;;;;;3.28;1.23;;;;;;;17.14;50.53;101862.34;4966109;28;124596;-75
2022/07/28 06:02:39;;;;;;;4.15;1.52;;;;;;;17.19;50.50;101865.59;4966090;28;122828;-74
2022/07/28 06:05:07;;;;;;;3.60;1.20;;;;;;;17.22;50.37;101868.09;4985051;28;119048;-74
2022/07/28 06:07:34;;;;;;;5.07;1.30;;;;;;;17.25;50.53;101870.63;4985045;28;118166;-75
2022/07/28 06:10:12;;;;;;;2.30;1.13;;;;;;;17.30;50.15;101867.66;4984398;28;124321;-75
2022/07/28 06:12:46;;;;;;;2.92;1.50;;;;;;;17.34;49.91;101868.34;4969440;28;124260;-75
2022/07/28 06:15:21;;;;;;;2.67;1.30;;;;;;;17.40;50.26;101862.66;4969756;28;118992;-75
2022/07/28 06:17:54;;;;;;;2.15;1.27;;;;;;;17.46;50.18;101868.53;4986610;28;119013;-75
2022/07/28 06:20:22;;;;;;;6.28;1.40;;;;;;;17.54;50.00;101860.03;4968166;28;123668;-74
2022/07/28 06:22:52;;;;;;;3.95;1.27;;;;;;;17.61;49.87;101861.41;4969550;28;123872;-75
2022/07/28 06:25:21;;;;;;;5.40;1.13;;;;;;;17.69;49.80;101869.84;4968710;28;119030;-75
2022/07/28 06:27:50;;;;;;;4.10;1.58;;;;;;;17.79;49.75;101869.31;4968183;28;121731;-75
2022/07/28 06:30:18;;;;;;;2.80;1.23;;;;;;;17.88;49.67;101874.16;4965592;28;124030;-74
2022/07/28 06:32:46;;;;;;;3.38;1.40;;;;;;;17.95;49.33;101878.22;4978913;28;123835;-75
2022/07/28 06:35:15;;;;;;;3.20;1.23;;;;;;;18.04;49.26;101868.75;4968847;28;118903;-74
2022/07/28 06:37:47;;;;;;;4.22;1.25;;;;;;;18.12;49.20;101876.31;4958919;28;119280;-74
2022/07/28 06:40:18;;;;;;;2.38;1.10;;;;;;;18.20;49.05;101871.38;4971699;28;124659;-74
2022/07/28 06:42:46;;;;;;;5.85;1.30;;;;;;;18.26;48.77;101865.63;4986284;28;123909;-75
2022/07/28 06:45:14;;;;;;;3.00;1.15;;;;;;;18.34;48.43;101866.00;4985315;28;120246;-75
2022/07/28 06:47:48;;;;;;;5.15;1.25;;;;;;;18.40;48.21;101865.66;4978938;28;118957;-74
2022/07/28 06:50:16;;;;;;;4.97;1.42;;;;;;;18.47;47.98;101866.97;4966686;28;124524;-75
2022/07/28 06:52:51;;;;;;;3.83;1.00;;;;;;;18.53;48.25;101864.88;4968633;28;122907;-75
2022/07/28 06:55:18;;;;;;;2.60;1.02;;;;;;;18.60;48.42;101852.81;4983866;28;119369;-75
2022/07/28 06:57:45;;;;;;;3.72;1.30;;;;;;;18.70;48.23;101856.63;4966389;28;118428;-75
2022/07/28 07:00:13;;;;;;;3.88;1.30;;;;;;;18.79;47.82;101866.78;4988494;28;123807;-74
2022/07/28 07:02:41;;;;;;;2.65;1.20;;;;;;;18.88;47.64;101859.16;4975849;28;123965;-75
2022/07/28 07:05:10;;;;;;;5.18;1.20;;;;;;;18.97;47.53;101858.56;4961307;28;119433;-75
2022/07/28 07:07:37;;;;;;;1.92;1.13;;;;;;;19.05;47.24;101856.25;4970422;28;119295;-74
2022/07/28 07:10:10;;;;;;;3.08;1.17;;;;;;;19.13;47.15;101859.28;4948408;28;124217;-75
2022/07/28 07:12:37;;;;;;;2.20;1.05;;;;;;;19.21;47.12;101859.66;4975118;28;123246;-74
2022/07/28 07:15:05;;;;;;;3.67;1.40;;;;;;;19.30;46.71;101843.88;4968563;28;119132;-74
2022/07/28 07:17:32;;;;;;;4.13;1.23;;;;;;;19.38;46.90;101852.28;4968074;28;117904;-75
2022/07/28 07:19:59;;;;;;;3.88;1.10;;;;;;;19.48;46.86;101850.72;4986639;28;123400;-75
2022/07/28 07:22:26;;;;;;;4.05;1.10;;;;;;;19.55;46.48;101849.38;4979418;28;124566;-74
2022/07/28 07:24:53;;;;;;;3.72;1.10;;;;;;;19.67;46.43;101846.81;4986278;28;119198;-74
2022/07/28 07:27:23;;;;;;;2.60;1.05;;;;;;;19.79;46.48;101846.00;4963144;28;118723;-75
2022/07/28 07:29:50;;;;;;;3.78;1.02;;;;;;;19.92;46.00;101846.88;4990552;28;123392;-74
2022/07/28 07:32:17;;;;;;;3.20;0.93;;;;;;;20.03;45.90;101855.06;4987594;28;123526;-73
2022/07/28 07:34:45;;;;;;;3.00;1.08;;;;;;;20.11;45.74;101845.63;5002279;28;119784;-73
2022/07/28 07:37:13;;;;;;;3.08;1.00;;;;;;;20.17;45.32;101855.94;4992731;28;119370;-74
2022/07/28 07:39:41;;;;;;;3.17;1.05;;;;;;;20.20;44.64;101858.44;5010325;28;122827;-74
2022/07/28 07:42:08;;;;;;;3.60;1.17;;;;;;;20.24;44.84;101849.19;4983294;28;122744;-73
2022/07/28 07:44:35;;;;;;;4.78;1.30;;;;;;;20.36;44.75;101851.00;4988052;28;118508;-74
2022/07/28 07:47:02;;;;;;;2.40;1.10;;;;;;;20.53;45.24;101843.56;4988972;28;118862;-74
2022/07/28 07:49:29;;;;;;;4.65;1.27;;;;;;;20.72;44.72;101851.19;4984412;28;124620;-74
2022/07/28 07:52:13;;;;;;;2.50;1.02;;;;;;;20.89;44.37;101847.28;4986165;28;123789;-74
2022/07/28 07:54:41;;;;;;;4.93;1.10;;;;;;;21.05;43.90;101842.50;4974560;28;118156;-73
2022/07/28 07:57:09;;;;;;;2.78;1.00;;;;;;;21.17;43.89;101841.63;4971721;28;119700;-74
2022/07/28 07:59:36;;;;;;;6.45;1.42;;;;;;;21.32;43.90;101844.13;4988186;28;125001;-74
2022/07/28 08:02:03;;;;;;;2.33;0.90;;;;;;;21.50;43.81;101845.47;4988613;28;123736;-74
2022/07/28 08:04:31;;;;;;;2.85;1.15;;;;;;;21.69;43.52;101841.41;4988603;28;119430;-74
2022/07/28 08:07:04;;;;;;;3.17;1.17;;;;;;;21.84;43.19;101845.59;4977184;28;119341;-74
2022/07/28 08:09:32;;;;;;;2.88;0.80;;;;;;;22.02;43.11;101839.75;4971266;28;123708;-73
2022/07/28 08:11:59;;;;;;;2.05;1.17;;;;;;;22.16;42.54;101847.66;4985842;28;123650;-73
2022/07/28 08:14:27;;;;;;;2.08;0.98;;;;;;;22.30;42.44;101836.66;4969532;28;118875;-73
2022/07/28 08:16:58;;;;;;;2.42;1.13;;;;;;;22.41;41.67;101833.09;4969883;28;118311;-73
2022/07/28 08:19:25;;;;;;;3.55;0.90;;;;;;;22.48;41.10;101828.09;4967435;28;122300;-73
2022/07/28 08:21:54;;;;;;;4.15;1.00;;;;;;;22.52;41.33;101840.34;4987867;28;123777;-73
2022/07/28 08:24:21;;;;;;;2.00;1.15;;;;;;;22.57;41.17;101827.34;4986805;28;120226;-72
2022/07/28 08:27:03;;;;;;;3.65;1.20;;;;;;;22.56;40.56;101820.22;4987994;28;119736;-73
2022/07/28 08:29:30;;;;;;;4.13;1.00;;;;;;;22.53;41.07;101820.47;4976088;28;123802;-73
2022/07/28 08:32:00;;;;;;;3.67;1.00;;;;;;;22.51;40.42;101814.34;4981756;28;123302;-72
2022/07/28 08:34:27;;;;;;;2.58;0.90;;;;;;;22.47;40.84;101815.53;4969999;28;119153;-73
2022/07/28 08:37:01;;;;;;;2.33;1.00;;;;;;;22.46;40.28;101819.25;4970075;28;117983;-73
2022/07/28 08:39:30;;;;;;;3.00;1.00;;;;;;;22.48;40.15;101817.28;4954006;28;123040;-74
2022/07/28 08:42:11;;;;;;;2.90;1.00;;;;;;;22.53;40.62;101806.97;4988599;28;125157;-74
2022/07/28 08:44:59;;;;;;;2.13;0.90;;;;;;;22.65;40.76;101814.06;4987453;28;119310;-74
2022/07/28 08:47:30;;;;;;;2.72;0.85;;;;;;;22.78;40.16;101813.94;4973563;28;118744;-74
2022/07/28 08:50:12;;;;;;;4.75;1.15;;;;;;;22.90;40.42;101822.88;4988445;28;122987;-74
2022/07/28 08:52:44;;;;;;;4.28;0.90;;;;;;;23.01;40.65;101820.16;4986188;28;123460;-74
2022/07/28 08:55:12;;;;;;;6.32;1.00;;;;;;;23.16;39.96;101831.56;4970116;28;120227;-74
2022/07/28 08:57:46;;;;;;;5.80;1.30;;;;;;;23.23;39.96;101821.13;4969507;28;119651;-73
2022/07/28 09:00:13;;;;;;;2.53;0.90;;;;;;;23.32;39.70;101825.75;4989525;28;124158;-80
2022/07/28 09:02:46;;;;;;;3.35;1.00;;;;;;;23.41;39.58;101821.41;4980469;28;122995;-79
2022/07/28 09:05:20;;;;;;;3.55;0.93;;;;;;;23.48;39.50;101823.47;4998970;28;118214;-80
2022/07/28 09:07:49;;;;;;;1.73;0.90;;;;;;;23.58;39.57;101811.88;4985057;28;119657;-80
2022/07/28 09:10:21;;;;;;;2.90;0.98;;;;;;;23.68;39.16;101815.53;5001492;28;122214;-80
2022/07/28 09:12:48;;;;;;;4.22;1.00;;;;;;;23.75;39.12;101819.41;4968839;28;121919;-81
2022/07/28 09:15:15;;;;;;;1.75;0.80;;;;;;;23.83;38.66;101811.53;4981465;28;120382;-79
2022/07/28 09:17:43;;;;;;;3.10;1.10;;;;;;;23.87;38.43;101812.97;4983371;28;120044;-80
2022/07/28 09:20:10;;;;;;;2.35;1.00;;;;;;;23.90;38.39;101815.44;4981174;28;124278;-80
2022/07/28 09:22:58;;;;;;;2.35;0.90;;;;;;;23.97;38.50;101814.88;4974565;28;124575;-81
2022/07/28 09:25:26;;;;;;;3.50;1.02;;;;;;;24.05;38.54;101807.84;5000206;28;118458;-81
2022/07/28 09:27:54;;;;;;;4.28;0.98;;;;;;;24.12;38.34;101810.84;4983285;28;118413;-81
2022/07/28 09:30:28;;;;;;;2.10;1.10;;;;;;;24.19;37.44;101809.31;5002806;28;124248;-80
2022/07/28 09:33:15;;;;;;;;;;;;;;;24.20;38.43;101812.88;4999533;28;123372;-80
2022/07/28 09:36:02;;;;;;;2.55;0.90;;;;;;;24.25;37.96;101811.47;5000357;28;119820;-80
2022/07/28 09:38:39;;;;;;;3.33;0.88;;;;;;;24.30;38.15;101794.84;4985106;28;117000;-80
2022/07/28 09:41:06;;;;;;;2.45;1.05;;;;;;;24.38;37.74;101800.44;4984720;28;122788;-80
2022/07/28 09:43:39;;;;;;;2.42;0.98;;;;;;;24.43;37.58;101797.31;4982873;28;122092;-80
2022/07/28 09:46:18;;;;;;;3.67;0.90;;;;;;;24.49;37.60;101791.34;5001660;28;119062;-81
2022/07/28 09:48:50;;;;;;;4.93;1.00;;;;;;;24.59;37.68;101792.28;4986821;28;119299;-80
2022/07/28 09:51:21;;;;;;;5.38;0.88;;;;;;;24.67;37.61;101784.28;4982800;28;124648;-80
2022/07/28 09:53:49;;;;;;;2.72;1.00;;;;;;;24.73;36.82;101777.47;4990716;28;123795;-80
2022/07/28 09:56:17;;;;;;;3.67;1.00;;;;;;;24.78;36.98;101768.94;4980528;28;117469;-80
2022/07/28 09:58:58;;;;;;;1.83;0.88;;;;;;;24.80;36.96;101761.53;5004409;28;119524;-81
2022/07/28 10:01:25;;;;;;;2.30;1.00;;;;;;;24.84;36.65;101773.78;5002750;28;124780;-83
2022/07/28 10:04:03;;;;;;;2.92;1.10;;;;;;;24.88;36.54;101772.50;5001350;28;125028;-83
2022/07/28 10:06:32;;;;;;;3.28;1.00;;;;;;;24.87;35.86;101768.09;4986060;28;118670;-84
2022/07/28 10:09:01;;;;;;;2.67;0.90;;;;;;;24.89;36.04;101771.53;4966197;28;118682;-83
2022/07/28 10:11:29;;;;;;;3.45;1.00;;;;;;;24.95;36.12;101760.13;4989065;28;122357;-81
2022/07/28 10:14:04;;;;;;;4.90;1.00;;;;;;;25.02;35.93;101749.59;4992648;28;123611;-83
2022/07/28 10:16:34;;;;;;;1.35;0.80;;;;;;;25.10;35.65;101757.00;4993327;28;119128;-83
2022/07/28 10:19:04;;;;;;;1.67;0.80;;;;;;;25.16;35.44;101745.56;4987693;28;119043;-83
2022/07/28 10:21:34;;;;;;;4.07;0.80;;;;;;;25.19;35.49;101750.72;4994942;28;123381;-85
2022/07/28 10:24:05;;;;;;;3.47;0.90;;;;;;;25.25;35.40;101750.19;4994250;28;123229;-84
2022/07/28 10:26:45;;;;;;;4.00;1.00;;;;;;;25.28;35.51;101739.06;4990331;28;119884;-84
2022/07/28 10:29:15;;;;;;;2.47;0.82;;;;;;;25.33;34.73;101742.16;4972503;28;119649;-82
2022/07/28 10:31:53;;;;;;;2.38;0.80;;;;;;;25.35;35.23;101751.00;4967111;28;124490;-82
2022/07/28 10:34:31;;;;;;;1.75;0.90;;;;;;;25.39;34.89;101738.91;4985477;28;123412;-84
2022/07/28 10:37:02;;;;;;;4.90;0.90;;;;;;;25.43;35.34;101743.03;4971972;28;117848;-81
2022/07/28 10:39:40;;;;;;;1.90;0.80;;;;;;;25.52;35.37;101740.44;4982179;28;118546;-82
2022/07/28 10:42:10;;;;;;;2.88;0.98;;;;;;;25.63;35.40;101743.00;4987998;28;125018;-78
2022/07/28 10:44:38;;;;;;;3.50;0.85;;;;;;;25.72;34.98;101749.41;5000331;28;122108;-81
2022/07/28 10:47:09;;;;;;;2.95;0.80;;;;;;;25.79;35.03;101748.69;4991492;28;118935;-84
2022/07/28 10:49:47;;;;;;;2.85;1.05;;;;;;;25.87;34.92;101739.81;4971533;28;118877;-82
2022/07/28 10:52:19;;;;;;;4.05;0.90;;;;;;;25.92;34.61;101745.69;4999991;28;122334;-83
2022/07/28 10:55:16;;;;;;;3.47;1.00;;;;;;;25.97;34.13;101735.22;4984204;28;123125;-81
2022/07/28 10:57:59;;;;;;;3.00;1.02;;;;;;;25.99;33.43;101732.34;4983621;28;121160;-84
2022/07/28 11:00:49;;;;;;;1.55;0.75;;;;;;;26.02;34.00;101732.06;4981319;28;119877;-82
2022/07/28 11:03:42;;;;;;;3.08;0.80;;;;;;;26.07;34.07;101724.34;4992215;28;123207;-81
2022/07/28 11:06:38;;;;;;;1.80;0.90;;;;;;;26.11;33.72;101725.75;4988908;28;124311;-80
2022/07/28 11:09:14;;;;;;;2.35;0.98;;;;;;;26.17;33.70;101725.13;4971756;28;118991;-82
2022/07/28 11:11:45;;;;;;;1.42;0.70;;;;;;;26.25;33.49;101726.25;4973870;28;118084;-82
2022/07/28 11:14:22;;;;;;;2.47;1.05;;;;;;;26.29;33.58;101720.34;4971008;28;123384;-81
2022/07/28 11:17:17;;;;;;;2.13;0.95;;;;;;;26.37;33.67;101725.03;4983582;28;122628;-82
2022/07/28 11:19:52;;;;;;;1.88;0.98;;;;;;;26.46;33.75;101718.69;5000235;28;119831;-80
2022/07/28 11:22:40;;;;;;;2.25;0.95;;;;;;;26.53;32.90;101718.94;5001231;28;117918;-81
2022/07/28 11:25:07;;;;;;;4.18;0.90;;;;;;;26.56;32.83;101716.78;4979006;28;122014;-81
2022/07/28 11:27:49;;;;;;;2.67;1.00;;;;;;;26.59;32.83;101712.91;4999054;28;122842;-81
2022/07/28 11:30:30;;;;;;;2.38;0.80;;;;;;;26.63;32.97;101708.03;5002885;28;119173;-82
2022/07/28 11:32:59;;;;;;;2.13;0.85;;;;;;;26.69;32.59;101702.00;4994079;28;120318;-82
2022/07/28 11:35:28;;;;;;;2.92;1.02;;;;;;;26.71;32.37;101705.41;4994936;28;125204;-82
2022/07/28 11:38:01;;;;;;;2.03;0.90;;;;;;;26.73;31.92;101708.81;4998481;28;124879;-83